Time;durP1;ratioP1;P1;durP2;ratioP2;P2;SDS_P1;SDS_P2;PMS_P1;PMS_P2;Temp;Humidity;BMP_temperature;BMP_pressure;BME280_temperature;BME280_humidity;BME280_pressure;Samples;Min_cycle;Max_cycle;Signal;HPM_P1;HPM_P2
2022/08/05 00:02:23;;;;;;;0.90;0.77;;;;;;;;;;5059640;28;20387;-71
2022/08/05 00:04:52;;;;;;;1.20;1.10;;;;;;;;;;5066692;28;20105;-71
2022/08/05 00:07:23;;;;;;;1.42;1.08;;;;;;;;;;5080572;28;20040;-72
2022/08/05 00:10:11;;;;;;;1.98;1.13;;;;;;;;;;5085371;28;20040;-71
2022/08/05 00:12:41;;;;;;;1.02;0.93;;;;;;;;;;5077154;28;20130;-70
2022/08/05 00:15:23;;;;;;;0.75;0.75;;;;;;;;;;5081410;28;20380;-73
2022/08/05 00:18:13;;;;;;;1.23;0.80;;;;;;;;;;5079067;28;20488;-72
2022/08/05 00:20:50;;;;;;;0.77;0.77;;;;;;;;;;5077803;28;20180;-72
2022/08/05 00:23:18;;;;;;;2.05;1.42;;;;;;;;;;5081879;28;20528;-72
2022/08/05 00:26:07;;;;;;;1.27;0.95;;;;;;;;;;5073966;28;20508;-71
2022/08/05 00:28:35;;;;;;;2.80;1.30;;;;;;;;;;5076088;28;20326;-71
2022/08/05 00:31:07;;;;;;;0.80;0.52;;;;;;;;;;5079110;28;20058;-72
2022/08/05 00:33:39;;;;;;;2.05;1.40;;;;;;;;;;5081620;28;20093;-71
2022/08/05 00:36:27;;;;;;;2.63;1.27;;;;;;;;;;5067580;28;20559;-70
2022/08/05 00:39:16;;;;;;;0.98;0.98;;;;;;;;;;5068299;28;20067;-75
2022/08/05 00:41:46;;;;;;;0.85;0.85;;;;;;;;;;5067650;28;20045;-71
2022/08/05 00:44:23;;;;;;;1.00;0.70;;;;;;;;;;5064987;28;20048;-72
2022/08/05 00:46:59;;;;;;;1.13;1.02;;;;;;;;;;5064848;28;20048;-73
2022/08/05 00:49:32;;;;;;;2.03;0.70;;;;;;;;;;5067712;28;20048;-71
2022/08/05 00:52:18;;;;;;;2.17;0.80;;;;;;;;;;5064195;28;20051;-72
2022/08/05 00:54:56;;;;;;;1.63;0.85;;;;;;;;;;5059408;28;20076;-71
2022/08/05 00:57:25;;;;;;;1.20;1.10;;;;;;;;;;5061606;28;20653;-72
2022/08/05 01:00:14;;;;;;;1.38;1.08;;;;;;;;;;5060349;28;20059;-72
2022/08/05 01:02:44;;;;;;;1.67;1.27;;;;;;;;;;5054955;28;20076;-72
2022/08/05 01:05:13;;;;;;;1.45;1.15;;;;;;;;;;5057398;28;20049;-71
2022/08/05 01:07:42;;;;;;;1.23;1.02;;;;;;;;;;5083065;28;20147;-71
2022/08/05 01:10:32;;;;;;;1.35;1.05;;;;;;;;;;5074765;28;20048;-71
2022/08/05 01:13:04;;;;;;;1.73;1.13;;;;;;;;;;5075506;28;20075;-71
2022/08/05 01:15:43;;;;;;;0.90;0.80;;;;;;;;;;5081082;28;20057;-71
2022/08/05 01:18:20;;;;;;;0.63;0.63;;;;;;;;;;5083371;28;20051;-73
2022/08/05 01:20:49;;;;;;;;;;;;;;;;;;5076002;28;20071;-71
2022/08/05 01:23:26;;;;;;;1.00;0.73;;;;;;;;;;5077033;28;19959;-73
2022/08/05 01:26:19;;;;;;;0.85;0.68;;;;;;;;;;5071655;28;20045;-73
2022/08/05 01:28:57;;;;;;;1.25;0.70;;;;;;;;;;5080768;28;20515;-72
2022/08/05 01:31:34;;;;;;;0.88;0.82;;;;;;;;;;5081691;28;20044;-72
2022/08/05 01:34:14;;;;;;;1.52;1.30;;;;;;;;;;5082041;28;20036;-71
2022/08/05 01:36:47;;;;;;;1.13;1.02;;;;;;;;;;5085377;28;20072;-74
2022/08/05 01:39:16;;;;;;;1.98;1.02;;;;;;;;;;5087594;28;20328;-72
2022/08/05 01:42:06;;;;;;;1.23;1.13;;;;;;;;;;5088076;28;20044;-72
2022/08/05 01:44:39;;;;;;;1.35;1.00;;;;;;;;;;5078451;28;20704;-72
2022/08/05 01:47:08;;;;;;;1.05;0.80;;;;;;;;;;5078988;28;20055;-71
2022/08/05 01:49:37;;;;;;;1.52;1.05;;;;;;;;;;5078237;28;20076;-71
2022/08/05 01:52:26;;;;;;;1.25;1.08;;;;;;;;;;5083615;28;20054;-71
2022/08/05 01:54:56;;;;;;;1.60;0.93;;;;;;;;;;5076980;28;20498;-71
2022/08/05 01:57:26;;;;;;;0.63;0.52;;;;;;;;;;5081106;28;20075;-71
2022/08/05 02:00:16;;;;;;;1.15;0.93;;;;;;;;;;5090212;28;20044;-72
2022/08/05 02:02:46;;;;;;;0.82;0.70;;;;;;;;;;5081299;28;20514;-71
2022/08/05 02:05:23;;;;;;;0.65;0.65;;;;;;;;;;5075817;28;20543;-71
2022/08/05 02:07:55;;;;;;;0.93;0.82;;;;;;;;;;5078239;28;20434;-72
2022/08/05 02:10:31;;;;;;;1.30;0.88;;;;;;;;;;5085581;28;20048;-71
2022/08/05 02:13:02;;;;;;;0.57;0.57;;;;;;;;;;5082179;28;20143;-73
2022/08/05 02:15:43;;;;;;;0.95;0.95;;;;;;;;;;5083652;28;20393;-72
2022/08/05 02:18:14;;;;;;;0.63;0.63;;;;;;;;;;5070992;28;20049;-72
2022/08/05 02:21:05;;;;;;;0.75;0.75;;;;;;;;;;5083710;28;20044;-72
2022/08/05 02:23:43;;;;;;;0.70;0.70;;;;;;;;;;5080620;28;20055;-72
2022/08/05 02:26:14;;;;;;;0.98;0.85;;;;;;;;;;5081692;28;20052;-73
2022/08/05 02:28:45;;;;;;;0.70;0.70;;;;;;;;;;5080234;28;20461;-71
2022/08/05 02:31:18;;;;;;;1.08;0.90;;;;;;;;;;5074993;28;20036;-73
2022/08/05 02:33:50;;;;;;;0.93;0.85;;;;;;;;;;5075289;28;20406;-72
2022/08/05 02:36:26;;;;;;;1.50;0.88;;;;;;;;;;5079589;28;20072;-71
2022/08/05 02:39:00;;;;;;;0.85;0.77;;;;;;;;;;5085552;28;20093;-72
2022/08/05 02:41:30;;;;;;;1.52;1.17;;;;;;;;;;5076563;28;20068;-71
2022/08/05 02:44:10;;;;;;;0.73;0.73;;;;;;;;;;5083736;28;20540;-72
2022/08/05 02:46:43;;;;;;;1.17;0.85;;;;;;;;;;5075224;28;20111;-71
2022/08/05 02:49:29;;;;;;;1.10;0.98;;;;;;;;;;5076215;28;20056;-72
2022/08/05 02:52:05;;;;;;;1.13;0.77;;;;;;;;;;5074542;28;20049;-72
2022/08/05 02:54:35;;;;;;;1.15;0.95;;;;;;;;;;5082104;28;20051;-71
2022/08/05 02:57:05;;;;;;;2.13;0.52;;;;;;;;;;5081906;28;20052;-72
2022/08/05 02:59:54;;;;;;;1.02;0.98;;;;;;;;;;5079943;28;20044;-71
2022/08/05 03:02:28;;;;;;;1.25;1.02;;;;;;;;;;5086203;28;20047;-71
2022/08/05 03:04:58;;;;;;;1.65;0.98;;;;;;;;;;5073087;28;20131;-71
2022/08/05 03:07:27;;;;;;;1.20;0.98;;;;;;;;;;5047520;28;20512;-71
2022/08/05 03:10:15;;;;;;;2.83;1.20;;;;;;;;;;5059727;28;20053;-73
2022/08/05 03:12:52;;;;;;;1.70;1.13;;;;;;;;;;5053190;28;20654;-71
2022/08/05 03:15:20;;;;;;;1.65;1.38;;;;;;;;;;5058576;28;20152;-71
2022/08/05 03:17:52;;;;;;;1.00;0.80;;;;;;;;;;5056010;28;20048;-74
2022/08/05 03:20:25;;;;;;;1.05;0.82;;;;;;;;;;5053413;28;20523;-72
2022/08/05 03:22:55;;;;;;;0.98;0.82;;;;;;;;;;5060424;28;20044;-72
2022/08/05 03:25:25;;;;;;;0.50;0.40;;;;;;;;;;5054796;28;20049;-71
2022/08/05 03:28:13;;;;;;;1.42;1.10;;;;;;;;;;5056778;28;20052;-73
2022/08/05 03:30:46;;;;;;;0.63;0.55;;;;;;;;;;5058697;28;20040;-72
2022/08/05 03:33:17;;;;;;;0.63;0.60;;;;;;;;;;5071387;28;20075;-74
2022/08/05 03:35:45;;;;;;;1.17;1.02;;;;;;;;;;5071876;28;20045;-73
2022/08/05 03:38:14;;;;;;;1.27;1.08;;;;;;;;;;5084085;28;20123;-71
2022/08/05 03:40:42;;;;;;;0.93;0.88;;;;;;;;;;5080424;28;20044;-70
2022/08/05 03:43:15;;;;;;;1.05;0.80;;;;;;;;;;5077474;28;20572;-72
2022/08/05 03:46:06;;;;;;;1.15;0.73;;;;;;;;;;5071499;28;20478;-71
2022/08/05 03:48:37;;;;;;;0.70;0.70;;;;;;;;;;5077042;28;20343;-72
2022/08/05 03:51:12;;;;;;;1.15;0.98;;;;;;;;;;5073047;28;20036;-71
2022/08/05 03:54:04;;;;;;;2.25;1.17;;;;;;;;;;5072569;28;20381;-70
2022/08/05 03:56:52;;;;;;;1.60;1.10;;;;;;;;;;5077336;28;20052;-70
2022/08/05 03:59:27;;;;;;;1.80;1.20;;;;;;;;;;5080648;28;20078;-70
2022/08/05 04:02:15;;;;;;;1.98;1.10;;;;;;;;;;5077104;28;20126;-71
2022/08/05 04:05:06;;;;;;;2.58;1.13;;;;;;;;;;5080695;28;20044;-71
2022/08/05 04:07:37;;;;;;;1.52;0.85;;;;;;;;;;5075418;28;20324;-69
2022/08/05 04:10:25;;;;;;;1.45;0.80;;;;;;;;;;5079106;28;20043;-69
2022/08/05 04:12:55;;;;;;;0.73;0.70;;;;;;;;;;5075611;28;20055;-70
2022/08/05 04:15:26;;;;;;;1.45;1.02;;;;;;;;;;5078573;28;20052;-73
2022/08/05 04:18:01;;;;;;;1.15;0.80;;;;;;;;;;5079499;28;20569;-69
2022/08/05 04:20:31;;;;;;;1.08;0.80;;;;;;;;;;5076688;28;20138;-71
2022/08/05 04:23:00;;;;;;;1.67;0.90;;;;;;;;;;5079014;28;20040;-70
2022/08/05 04:25:29;;;;;;;0.73;0.70;;;;;;;;;;5077675;28;20155;-74
2022/08/05 04:28:17;;;;;;;0.77;0.70;;;;;;;;;;5072846;28;20052;-70
2022/08/05 04:30:45;;;;;;;0.65;0.65;;;;;;;;;;5077769;28;20054;-71
2022/08/05 04:33:15;;;;;;;0.95;0.77;;;;;;;;;;5080097;28;20048;-71
2022/08/05 04:36:08;;;;;;;0.98;0.88;;;;;;;;;;5073079;28;20093;-71
2022/08/05 04:38:56;;;;;;;0.95;0.68;;;;;;;;;;5075266;28;20048;-70
2022/08/05 04:41:25;;;;;;;1.00;0.80;;;;;;;;;;5070416;28;20059;-70
2022/08/05 04:44:04;;;;;;;0.82;0.82;;;;;;;;;;5068881;28;20093;-70
2022/08/05 04:46:37;;;;;;;0.60;0.60;;;;;;;;;;5070847;28;20384;-70
2022/08/05 04:49:05;;;;;;;1.35;1.25;;;;;;;;;;5073228;28;20054;-75
2022/08/05 04:51:43;;;;;;;4.38;0.82;;;;;;;;;;5072008;28;20048;-72
2022/08/05 04:54:13;;;;;;;1.27;1.00;;;;;;;;;;5079165;28;20050;-70
2022/08/05 04:56:42;;;;;;;1.02;0.80;;;;;;;;;;5075742;28;20040;-70
2022/08/05 04:59:11;;;;;;;1.35;0.75;;;;;;;;;;5077964;28;20049;-73
2022/08/05 05:01:59;;;;;;;1.30;0.77;;;;;;;;;;5074664;28;20059;-69
2022/08/05 05:04:47;;;;;;;1.52;0.90;;;;;;;;;;5083866;28;20040;-70
2022/08/05 05:07:19;;;;;;;1.05;1.00;;;;;;;;;;5079274;28;20040;-70
2022/08/05 05:10:03;;;;;;;0.88;0.70;;;;;;;;;;5075820;28;20097;-70
2022/08/05 05:12:31;;;;;;;2.03;0.80;;;;;;;;;;5079911;28;20123;-70
2022/08/05 05:15:00;;;;;;;1.33;1.00;;;;;;;;;;5079695;28;20183;-69
2022/08/05 05:17:37;;;;;;;1.05;0.93;;;;;;;;;;5079738;28;20052;-71
2022/08/05 05:20:24;;;;;;;0.90;0.73;;;;;;;;;;5078342;28;20051;-70
2022/08/05 05:22:57;;;;;;;1.17;0.95;;;;;;;;;;5074386;28;20044;-70
2022/08/05 05:25:26;;;;;;;0.73;0.68;;;;;;;;;;5071442;28;20122;-71
2022/08/05 05:28:08;;;;;;;0.63;0.60;;;;;;;;;;5077586;28;20051;-70
2022/08/05 05:30:37;;;;;;;1.52;0.63;;;;;;;;;;5081929;28;20139;-71
2022/08/05 05:33:06;;;;;;;0.65;0.65;;;;;;;;;;5085252;28;20048;-72
2022/08/05 05:35:45;;;;;;;2.33;1.08;;;;;;;;;;5077679;28;20588;-69
2022/08/05 05:38:16;;;;;;;0.93;0.52;;;;;;;;;;5082363;28;20496;-70
2022/08/05 05:40:54;;;;;;;0.68;0.45;;;;;;;;;;5078897;28;20049;-70
2022/08/05 05:43:23;;;;;;;1.17;0.93;;;;;;;;;;5072873;28;20389;-70
2022/08/05 05:46:11;;;;;;;0.98;0.77;;;;;;;;;;5075230;28;20366;-71
2022/08/05 05:48:46;;;;;;;0.68;0.52;;;;;;;;;;5079908;28;20052;-72
2022/08/05 05:51:19;;;;;;;3.60;1.15;;;;;;;;;;5080634;28;20048;-73
2022/08/05 05:53:49;;;;;;;2.08;1.10;;;;;;;;;;5080058;28;20044;-70
2022/08/05 05:56:26;;;;;;;0.63;0.63;;;;;;;;;;5074641;28;20049;-72
2022/08/05 05:59:01;;;;;;;1.40;1.00;;;;;;;;;;5073127;28;20500;-72
2022/08/05 06:01:31;;;;;;;0.90;0.85;;;;;;;;;;5067554;28;20052;-70
2022/08/05 06:04:05;;;;;;;0.57;0.50;;;;;;;;;;5075952;28;20113;-71
2022/08/05 06:06:34;;;;;;;0.73;0.60;;;;;;;;;;5074886;28;20048;-70
2022/08/05 06:09:05;;;;;;;0.65;0.65;;;;;;;;;;5074364;28;20119;-70
2022/08/05 06:11:34;;;;;;;1.10;0.77;;;;;;;;;;5076431;28;20464;-70
2022/08/05 06:14:06;;;;;;;1.42;1.00;;;;;;;;;;5075301;28;20380;-70
2022/08/05 06:16:35;;;;;;;1.02;0.85;;;;;;;;;;5065389;28;20152;-70
2022/08/05 06:19:04;;;;;;;1.52;1.23;;;;;;;;;;5060875;28;20146;-72
2022/08/05 06:21:35;;;;;;;0.98;0.80;;;;;;;;;;5055947;28;20131;-72
2022/08/05 06:24:08;;;;;;;6.63;0.90;;;;;;;;;;5059341;28;20059;-76
2022/08/05 06:26:39;;;;;;;1.10;0.88;;;;;;;;;;5068545;28;20510;-70
2022/08/05 06:29:20;;;;;;;2.13;0.90;;;;;;;;;;5081672;28;20109;-72
2022/08/05 06:32:08;;;;;;;1.17;0.52;;;;;;;;;;5074219;28;20064;-71
2022/08/05 06:34:53;;;;;;;;;;;;;;;;;;5078503;28;20044;-70
2022/08/05 06:37:25;;;;;;;4.00;0.95;;;;;;;;;;5076817;28;20341;-70
2022/08/05 06:40:15;;;;;;;0.88;0.88;;;;;;;;;;5074381;28;20058;-70
2022/08/05 06:42:48;;;;;;;;;;;;;;;;;;5077902;28;20125;-69
2022/08/05 06:45:19;;;;;;;1.98;0.95;;;;;;;;;;5074876;28;20447;-71
2022/08/05 06:47:48;;;;;;;1.08;1.00;;;;;;;;;;5075185;28;20052;-71
2022/08/05 06:50:37;;;;;;;2.15;0.60;;;;;;;;;;5074806;28;20048;-69
2022/08/05 06:53:06;;;;;;;1.65;0.90;;;;;;;;;;5080687;28;20178;-70
2022/08/05 06:55:51;;;;;;;1.23;1.00;;;;;;;;;;5080924;28;20079;-70
2022/08/05 06:58:19;;;;;;;0.98;0.80;;;;;;;;;;5079180;28;20530;-70
2022/08/05 07:01:07;;;;;;;1.23;0.93;;;;;;;;;;5078935;28;20044;-70
2022/08/05 07:03:40;;;;;;;2.38;0.95;;;;;;;;;;5080543;28;20048;-72
2022/08/05 07:06:09;;;;;;;0.65;0.65;;;;;;;;;;5084387;28;20072;-70
2022/08/05 07:08:42;;;;;;;3.30;1.25;;;;;;;;;;5080590;28;20054;-70
2022/08/05 07:11:20;;;;;;;0.50;0.47;;;;;;;;;;5079965;28;20049;-71
2022/08/05 07:16:59;;;;;;;0.73;0.63;;;;;;;;;;5078915;28;20052;-71
2022/08/05 07:19:49;;;;;;;1.27;0.93;;;;;;;;;;5082431;28;20051;-71
2022/08/05 07:22:37;;;;;;;4.78;0.98;;;;;;;;;;5080536;28;20048;-71
2022/08/05 07:25:07;;;;;;;1.40;0.65;;;;;;;;;;5079806;28;20051;-74
2022/08/05 07:27:57;;;;;;;0.70;0.70;;;;;;;;;;5080805;28;20161;-72
2022/08/05 07:30:35;;;;;;;1.50;0.90;;;;;;;;;;5082471;28;20048;-74
2022/08/05 07:33:07;;;;;;;1.10;0.80;;;;;;;;;;5080203;28;20463;-72
2022/08/05 07:35:37;;;;;;;2.00;1.10;;;;;;;;;;5080817;28;20132;-75
2022/08/05 07:38:26;;;;;;;1.13;0.95;;;;;;;;;;5077733;28;20048;-71
2022/08/05 07:41:06;;;;;;;1.58;1.20;;;;;;;;;;5081738;28;20135;-77
2022/08/05 07:43:56;;;;;;;2.03;1.02;;;;;;;;;;5082303;28;20058;-75
2022/08/05 07:46:25;;;;;;;0.85;0.68;;;;;;;;;;5082887;28;20478;-71
2022/08/05 07:48:55;;;;;;;0.98;0.90;;;;;;;;;;5076434;28;20040;-71
2022/08/05 07:51:31;;;;;;;1.13;0.80;;;;;;;;;;5079375;28;20142;-74
2022/08/05 07:54:08;;;;;;;1.98;1.10;;;;;;;;;;5072018;28;20123;-71
2022/08/05 07:56:39;;;;;;;2.92;1.70;;;;;;;;;;5078784;28;20040;-72
2022/08/05 07:59:29;;;;;;;1.30;0.98;;;;;;;;;;5081679;28;20066;-71
2022/08/05 08:02:08;;;;;;;1.75;1.00;;;;;;;;;;5076962;28;20131;-73
2022/08/05 08:04:43;;;;;;;3.60;1.27;;;;;;;;;;5081463;28;20044;-73
2022/08/05 08:07:12;;;;;;;0.75;0.75;;;;;;;;;;5076832;28;20074;-71
2022/08/05 08:09:42;;;;;;;0.73;0.73;;;;;;;;;;5078895;28;20133;-73
2022/08/05 08:12:12;;;;;;;1.92;1.20;;;;;;;;;;5077812;28;20048;-72
2022/08/05 08:15:02;;;;;;;1.90;0.88;;;;;;;;;;5076687;28;20135;-71
2022/08/05 08:17:32;;;;;;;1.63;1.02;;;;;;;;;;5068857;28;20048;-72
2022/08/05 08:20:04;;;;;;;1.05;0.95;;;;;;;;;;5071760;28;20044;-75
2022/08/05 08:22:53;;;;;;;1.95;1.10;;;;;;;;;;5076969;28;20147;-72
2022/08/05 08:25:23;;;;;;;1.83;1.20;;;;;;;;;;5078006;28;20052;-72
2022/08/05 08:28:12;;;;;;;1.20;0.90;;;;;;;;;;5079525;28;20132;-72
2022/08/05 08:31:05;;;;;;;1.02;0.93;;;;;;;;;;5082709;28;20411;-71
2022/08/05 08:33:34;;;;;;;0.83;0.77;;;;;;;;;;5082578;28;20040;-72
2022/08/05 08:36:09;;;;;;;1.27;0.88;;;;;;;;;;5070177;28;20059;-70
2022/08/05 08:38:57;;;;;;;1.95;1.17;;;;;;;;;;5068248;28;20041;-71
2022/08/05 08:41:31;;;;;;;2.58;1.23;;;;;;;;;;5081085;28;20076;-72
2022/08/05 08:44:20;;;;;;;1.27;0.88;;;;;;;;;;5076790;28;20159;-74
2022/08/05 08:47:10;;;;;;;3.75;1.45;;;;;;;;;;5077391;28;20040;-71
2022/08/05 08:49:59;;;;;;;10.55;1.02;;;;;;;;;;5077687;28;20454;-74
2022/08/05 08:52:50;;;;;;;3.45;1.63;;;;;;;;;;5076601;28;20474;-76
2022/08/05 08:55:21;;;;;;;1.92;1.20;;;;;;;;;;5077553;28;20048;-72
2022/08/05 08:58:10;;;;;;;2.20;1.25;;;;;;;;;;5079003;28;20516;-72
2022/08/05 09:00:41;;;;;;;5.72;1.30;;;;;;;;;;5078866;28;20683;-70
2022/08/05 09:03:11;;;;;;;1.13;0.88;;;;;;;;;;5080172;28;20588;-71
2022/08/05 09:05:47;;;;;;;1.50;1.05;;;;;;;;;;5075220;28;20052;-72
2022/08/05 09:08:36;;;;;;;1.60;1.00;;;;;;;;;;5071945;28;20052;-73
2022/08/05 09:11:08;;;;;;;1.55;1.33;;;;;;;;;;5075316;28;20048;-70
2022/08/05 09:13:42;;;;;;;1.52;1.10;;;;;;;;;;5073876;28;20122;-72
2022/08/05 09:16:30;;;;;;;2.53;1.70;;;;;;;;;;5078177;28;20048;-71
2022/08/05 09:19:00;;;;;;;1.95;1.10;;;;;;;;;;5071597;28;20048;-71
2022/08/05 09:21:34;;;;;;;0.98;0.88;;;;;;;;;;5077213;28;20327;-74
2022/08/05 09:24:22;;;;;;;2.65;1.40;;;;;;;;;;5073545;28;20051;-71
2022/08/05 09:26:52;;;;;;;1.65;1.40;;;;;;;;;;5074314;28;20044;-71
2022/08/05 09:29:20;;;;;;;2.30;1.15;;;;;;;;;;5077734;28;20101;-72
2022/08/05 09:32:04;;;;;;;1.20;0.98;;;;;;;;;;5077956;28;20149;-72
2022/08/05 09:34:57;;;;;;;1.58;1.20;;;;;;;;;;5076868;28;20533;-72
2022/08/05 09:37:27;;;;;;;1.10;0.95;;;;;;;;;;5072418;28;20036;-70
2022/08/05 09:40:29;;;;;;;1.23;1.13;;;;;;;;;;5078035;28;20051;-72
2022/08/05 09:42:59;;;;;;;3.28;1.30;;;;;;;;;;5072406;28;20044;-73
2022/08/05 09:45:38;;;;;;;1.35;1.00;;;;;;;;;;5073960;28;20038;-72
2022/08/05 09:48:28;;;;;;;1.20;1.10;;;;;;;;;;5064257;28;20496;-74
2022/08/05 09:50:59;;;;;;;5.18;1.20;;;;;;;;;;5062583;28;20069;-72
2022/08/05 09:53:31;;;;;;;0.82;0.73;;;;;;;;;;5066645;28;20044;-72
2022/08/05 09:56:25;;;;;;;1.85;1.25;;;;;;;;;;5068482;28;20459;-73
2022/08/05 09:58:57;;;;;;;1.02;0.93;;;;;;;;;;5063169;28;20159;-72
2022/08/05 10:01:25;;;;;;;2.05;1.35;;;;;;;;;;5062938;28;20056;-72
2022/08/05 10:04:02;;;;;;;0.80;0.77;;;;;;;;;;5062275;28;20040;-74
2022/08/05 10:06:32;;;;;;;4.13;0.90;;;;;;;;;;5075231;28;20066;-73
2022/08/05 10:09:10;;;;;;;1.35;1.10;;;;;;;;;;5082806;28;20058;-72
2022/08/05 10:11:55;;;;;;;3.35;1.17;;;;;;;;;;5078980;28;20044;-72
2022/08/05 10:14:26;;;;;;;6.35;0.90;;;;;;;;;;5074534;28;20063;-73
2022/08/05 10:16:58;;;;;;;3.63;0.95;;;;;;;;;;5076601;28;20050;-72
2022/08/05 10:19:27;;;;;;;1.05;0.73;;;;;;;;;;5080770;28;20072;-72
2022/08/05 10:22:17;;;;;;;1.63;1.00;;;;;;;;;;5081064;28;20044;-72
2022/08/05 10:25:05;;;;;;;1.48;1.15;;;;;;;;;;5076996;28;20058;-72
2022/08/05 10:27:35;;;;;;;1.38;1.00;;;;;;;;;;5079529;28;20072;-72
2022/08/05 10:30:24;;;;;;;0.73;0.68;;;;;;;;;;5076150;28;20407;-72
2022/08/05 10:33:13;;;;;;;1.02;0.77;;;;;;;;;;5077657;28;20244;-71
2022/08/05 10:35:42;;;;;;;1.67;1.30;;;;;;;;;;5077369;28;20503;-72
2022/08/05 10:38:15;;;;;;;0.82;0.80;;;;;;;;;;5076815;28;20407;-71
2022/08/05 10:40:55;;;;;;;1.42;0.90;;;;;;;;;;5078766;28;20090;-73
2022/08/05 10:43:31;;;;;;;1.42;0.90;;;;;;;;;;5077229;28;20167;-71
2022/08/05 10:46:07;;;;;;;1.48;1.05;;;;;;;;;;5074090;28;20052;-71
2022/08/05 10:48:36;;;;;;;1.48;0.95;;;;;;;;;;5075651;28;21178;-75
2022/08/05 10:51:24;;;;;;;1.35;0.80;;;;;;;;;;5081179;28;20080;-73
2022/08/05 10:53:59;;;;;;;1.63;1.00;;;;;;;;;;5082724;28;20130;-73
2022/08/05 10:56:48;;;;;;;1.23;0.98;;;;;;;;;;5084267;28;20044;-74
2022/08/05 10:59:25;;;;;;;0.70;0.70;;;;;;;;;;5076162;28;20056;-72
2022/08/05 11:02:16;;;;;;;1.90;1.00;;;;;;;;;;5078547;28;20056;-73
2022/08/05 11:05:05;;;;;;;2.92;0.90;;;;;;;;;;5078899;28;20063;-75
2022/08/05 11:07:34;;;;;;;1.75;0.75;;;;;;;;;;5072393;28;20514;-73
2022/08/05 11:10:25;;;;;;;1.33;0.93;;;;;;;;;;5073012;28;20052;-72
2022/08/05 11:12:58;;;;;;;1.67;0.95;;;;;;;;;;5080066;28;20456;-72
2022/08/05 11:15:29;;;;;;;4.57;1.02;;;;;;;;;;5077301;28;20047;-73
2022/08/05 11:18:26;;;;;;;1.08;0.77;;;;;;;;;;5074253;28;20130;-73
2022/08/05 11:20:57;;;;;;;1.13;0.68;;;;;;;;;;5075800;28;20411;-72
2022/08/05 11:23:29;;;;;;;1.20;0.80;;;;;;;;;;5079781;28;20059;-73
2022/08/05 11:26:22;;;;;;;1.52;1.08;;;;;;;;;;5079500;28;20059;-75
2022/08/05 11:29:00;;;;;;;1.13;0.90;;;;;;;;;;5073813;28;20087;-72
2022/08/05 11:31:42;;;;;;;1.17;1.08;;;;;;;;;;5077526;28;20044;-72
2022/08/05 11:34:39;;;;;;;1.55;0.80;;;;;;;;;;5077034;28;20515;-72
2022/08/05 11:37:36;;;;;;;0.70;0.68;;;;;;;;;;5074051;28;20537;-72
2022/08/05 11:40:54;;;;;;;1.50;0.70;;;;;;;;;;5078379;28;20059;-72
2022/08/05 11:43:32;;;;;;;1.70;1.10;;;;;;;;;;5078083;28;20519;-73
2022/08/05 11:46:26;;;;;;;1.35;1.02;;;;;;;;;;5076692;28;20150;-71
2022/08/05 11:49:01;;;;;;;7.22;1.02;;;;;;;;;;5077429;28;20396;-72
2022/08/05 11:51:30;;;;;;;1.13;0.75;;;;;;;;;;5074500;28;20212;-73
2022/08/05 11:54:23;;;;;;;1.10;0.93;;;;;;;;;;5073059;28;20052;-73
2022/08/05 11:57:02;;;;;;;3.83;0.60;;;;;;;;;;5075589;28;20044;-70
2022/08/05 11:59:52;;;;;;;2.38;1.20;;;;;;;;;;5076808;28;20055;-70
2022/08/05 12:02:25;;;;;;;1.70;1.00;;;;;;;;;;5081246;28;21285;-71
2022/08/05 12:05:00;;;;;;;1.45;1.02;;;;;;;;;;5074323;28;20060;-73
2022/08/05 12:07:36;;;;;;;1.40;1.00;;;;;;;;;;5078237;28;20054;-71
2022/08/05 12:10:26;;;;;;;1.08;0.80;;;;;;;;;;5081374;28;20052;-72
2022/08/05 12:13:13;;;;;;;1.38;0.80;;;;;;;;;;5077619;28;20051;-73
2022/08/05 12:15:56;;;;;;;1.27;0.88;;;;;;;;;;5074186;28;20153;-71
2022/08/05 12:18:29;;;;;;;1.23;0.95;;;;;;;;;;5078281;28;20105;-71
2022/08/05 12:21:09;;;;;;;4.28;1.80;;;;;;;;;;5076242;28;20044;-72
2022/08/05 12:23:39;;;;;;;1.98;0.82;;;;;;;;;;5078529;28;20146;-72
2022/08/05 12:26:10;;;;;;;1.67;0.88;;;;;;;;;;5080982;28;20063;-72
2022/08/05 12:28:39;;;;;;;1.30;0.90;;;;;;;;;;5077442;28;20097;-72
2022/08/05 12:31:09;;;;;;;1.30;1.20;;;;;;;;;;5073954;28;20429;-71
2022/08/05 12:33:50;;;;;;;2.25;0.68;;;;;;;;;;5079241;28;20044;-71
2022/08/05 12:36:20;;;;;;;4.57;0.82;;;;;;;;;;5076538;28;20064;-71
2022/08/05 12:38:53;;;;;;;2.63;1.27;;;;;;;;;;5079924;28;20044;-71
2022/08/05 12:41:22;;;;;;;2.80;0.70;;;;;;;;;;5071608;28;20076;-72
2022/08/05 12:44:02;;;;;;;2.58;0.70;;;;;;;;;;5079712;28;20076;-71
2022/08/05 12:46:33;;;;;;;0.93;0.75;;;;;;;;;;5077035;28;20059;-72
2022/08/05 12:49:03;;;;;;;1.40;0.70;;;;;;;;;;5076757;28;20117;-71
2022/08/05 12:51:45;;;;;;;1.70;1.00;;;;;;;;;;5077601;28;20121;-72
2022/08/05 12:54:33;;;;;;;1.17;0.82;;;;;;;;;;5070284;28;20123;-72
2022/08/05 12:57:03;;;;;;;1.23;1.13;;;;;;;;;;5073970;28;20131;-72
2022/08/05 12:59:44;;;;;;;2.25;1.10;;;;;;;;;;5075989;28;20059;-72
2022/08/05 13:02:36;;;;;;;0.80;0.80;;;;;;;;;;5075872;28;20040;-72
2022/08/05 13:05:08;;;;;;;2.92;0.80;;;;;;;;;;5076914;28;20097;-71
2022/08/05 13:07:41;;;;;;;2.60;1.05;;;;;;;;;;5075818;28;20051;-75
2022/08/05 13:10:28;;;;;;;3.30;1.13;;;;;;;;;;5077910;28;20051;-72
2022/08/05 13:12:56;;;;;;;1.08;0.88;;;;;;;;;;5077114;28;20121;-72
2022/08/05 13:15:30;;;;;;;0.95;0.80;;;;;;;;;;5076073;28;20058;-72
2022/08/05 13:18:10;;;;;;;2.38;0.85;;;;;;;;;;5078028;28;20044;-71
2022/08/05 13:20:47;;;;;;;1.10;1.00;;;;;;;;;;5074954;28;20059;-72
2022/08/05 13:23:17;;;;;;;0.73;0.73;;;;;;;;;;5076613;28;20059;-72
2022/08/05 13:25:50;;;;;;;1.35;0.80;;;;;;;;;;5082506;28;20051;-71
2022/08/05 13:28:27;;;;;;;1.90;1.20;;;;;;;;;;5075470;28;20064;-72
2022/08/05 13:30:56;;;;;;;1.25;0.90;;;;;;;;;;5079694;28;20044;-72
2022/08/05 13:33:26;;;;;;;1.38;1.10;;;;;;;;;;5079872;28;20040;-72
2022/08/05 13:36:14;;;;;;;1.23;0.80;;;;;;;;;;5081460;28;20048;-72
2022/08/05 13:38:42;;;;;;;0.70;0.63;;;;;;;;;;5080958;28;20079;-72
2022/08/05 13:41:19;;;;;;;2.78;1.00;;;;;;;;;;5084007;28;20052;-72
2022/08/05 13:43:52;;;;;;;0.95;0.82;;;;;;;;;;5084362;28;20073;-72
2022/08/05 13:46:22;;;;;;;2.38;1.02;;;;;;;;;;5085795;28;20958;-74
2022/08/05 13:49:12;;;;;;;1.00;0.68;;;;;;;;;;5073301;28;20507;-71
2022/08/05 13:51:41;;;;;;;0.73;0.73;;;;;;;;;;5087203;28;20106;-72
2022/08/05 13:54:14;;;;;;;1.10;0.90;;;;;;;;;;5080418;28;20807;-73
2022/08/05 13:56:43;;;;;;;1.08;0.80;;;;;;;;;;5078834;28;20048;-72
2022/08/05 13:59:20;;;;;;;0.80;0.80;;;;;;;;;;5083829;28;20056;-73
2022/08/05 14:01:52;;;;;;;0.90;0.77;;;;;;;;;;5082844;28;20051;-73
2022/08/05 14:07:18;;;;;;;2.85;1.08;;;;;;;;;;5061930;28;20579;-73
2022/08/05 14:10:06;;;;;;;1.17;0.82;;;;;;;;;;5058979;28;20037;-72
2022/08/05 14:12:36;;;;;;;1.40;1.10;;;;;;;;;;5059907;28;20049;-72
2022/08/05 14:15:04;;;;;;;1.02;0.85;;;;;;;;;;5055849;28;20139;-73
2022/08/05 14:17:53;;;;;;;2.30;1.08;;;;;;;;;;5081485;28;20408;-71
2022/08/05 14:20:29;;;;;;;1.33;0.90;;;;;;;;;;5081193;28;20044;-72
2022/08/05 14:22:57;;;;;;;1.65;0.98;;;;;;;;;;5085301;28;20158;-72
2022/08/05 14:25:26;;;;;;;1.20;0.90;;;;;;;;;;5085531;28;20067;-72
2022/08/05 14:27:57;;;;;;;1.77;1.10;;;;;;;;;;5078339;28;20462;-72
2022/08/05 14:30:26;;;;;;;1.52;0.82;;;;;;;;;;5079100;28;20487;-73
2022/08/05 14:32:55;;;;;;;1.30;0.82;;;;;;;;;;5078926;28;20048;-72
2022/08/05 14:35:25;;;;;;;2.63;0.77;;;;;;;;;;5073105;28;20538;-72
2022/08/05 14:38:15;;;;;;;1.48;0.98;;;;;;;;;;5081771;28;20704;-72
2022/08/05 14:41:00;;;;;;;1.42;0.82;;;;;;;;;;5084013;28;20130;-72
2022/08/05 14:43:34;;;;;;;1.80;1.20;;;;;;;;;;5087955;28;20492;-73
2022/08/05 14:46:23;;;;;;;2.40;1.30;;;;;;;;;;5083435;28;20507;-72
2022/08/05 14:48:56;;;;;;;1.55;1.00;;;;;;;;;;5083681;28;20051;-72
2022/08/05 14:51:25;;;;;;;1.08;0.77;;;;;;;;;;5085850;28;20048;-72
2022/08/05 14:53:59;;;;;;;1.27;0.90;;;;;;;;;;5083852;28;20097;-72
2022/08/05 14:56:48;;;;;;;2.03;1.05;;;;;;;;;;5076822;28;20052;-74
2022/08/05 14:59:19;;;;;;;1.13;1.00;;;;;;;;;;5084708;28;20485;-73
2022/08/05 15:01:48;;;;;;;1.85;1.08;;;;;;;;;;5085858;28;20051;-75
2022/08/05 15:04:17;;;;;;;1.25;0.85;;;;;;;;;;5080358;28;20048;-73
2022/08/05 15:06:48;;;;;;;1.08;0.85;;;;;;;;;;5084058;28;20140;-73
2022/08/05 15:09:18;;;;;;;1.67;0.80;;;;;;;;;;5087549;28;20140;-72
2022/08/05 15:12:07;;;;;;;1.23;1.10;;;;;;;;;;5076607;28;20349;-73
2022/08/05 15:14:38;;;;;;;6.13;0.90;;;;;;;;;;5079895;28;20471;-72
2022/08/05 15:17:17;;;;;;;1.52;1.42;;;;;;;;;;5084545;28;20897;-73
2022/08/05 15:20:06;;;;;;;1.27;1.00;;;;;;;;;;5082325;28;20046;-72
2022/08/05 15:22:45;;;;;;;1.05;0.63;;;;;;;;;;5080429;28;20122;-72
2022/08/05 15:25:25;;;;;;;1.08;0.88;;;;;;;;;;5073199;28;20190;-71
2022/08/05 15:28:14;;;;;;;1.33;1.02;;;;;;;;;;5073855;28;20147;-72
2022/08/05 15:30:43;;;;;;;1.65;0.75;;;;;;;;;;5075579;28;20441;-73
2022/08/05 15:33:14;;;;;;;1.65;1.02;;;;;;;;;;5082038;28;20529;-71
2022/08/05 15:36:06;;;;;;;0.60;0.60;;;;;;;;;;5084898;28;20046;-73
2022/08/05 15:38:45;;;;;;;1.13;1.02;;;;;;;;;;5075944;28;20076;-72
2022/08/05 15:41:15;;;;;;;1.70;0.98;;;;;;;;;;5083918;28;20051;-71
2022/08/05 15:43:50;;;;;;;1.30;0.85;;;;;;;;;;5077278;28;20048;-71
2022/08/05 15:46:22;;;;;;;1.33;0.90;;;;;;;;;;5076154;28;20448;-70
2022/08/05 15:48:52;;;;;;;1.83;0.90;;;;;;;;;;5072331;28;20080;-70